Alkor — DBND — position and weather

sailwx.info

Track history (hours):
 
Tides and Currents Weather Stations Pressure Air Temp Water Temp Dewpoint Dewpoint Depression Visibility Wind Speed Wind Dir Waves Ship Positions

Oceanographic research ship Alkor (Germany)

Ship's website: http://www.briese.de/

Detailed information on ship capabilities available from University of Delaware's Ocean Information Center.

Last reported at 2017-Apr-28 03:59 UTC. Time now 2017-Apr-29 05:52 UTC.
Position N 54°33' E 010°29'.

Length 55 m; draft 4.2 m.

Type: Ship. MMSI: 211216512.

Date/timePositionNaut miles runAvg speedWind from/ knotsBaromVisibWave heightAir tempDewpointWater temp
2017-Apr-28 03:59N 54°33' E 010°29'510.5
2017-Apr-28 03:30N 54°35' E 010°37'510.4
2017-Apr-28 03:00N 54°36' E 010°45'3 6.7
2017-Apr-28 02:30N 54°37' E 010°51'1 2.6
2017-Apr-28 02:00N 54°37' E 010°53'1 2.4
2017-Apr-28 01:30N 54°37' E 010°55'1 2.6
2017-Apr-28 01:00N 54°36' E 010°57'1 3.0
2017-Apr-28 00:30N 54°36' E 010°60'1 2.7
2017-Apr-28 00:00N 54°36' E 011°02'3 5.6
2017-Apr-27 23:30N 54°37' E 011°07'2 4.3
2017-Apr-27 23:00N 54°37' E 011°11'2 4.8
2017-Apr-27 22:30N 54°36' E 011°15'3 6.2
2017-Apr-27 22:00N 54°35' E 011°19'3 5.5
2017-Apr-27 21:30N 54°33' E 011°24'3 5.1
2017-Apr-27 21:00N 54°32' E 011°28'3 5.7
2017-Apr-27 20:30N 54°31' E 011°32'3 5.7
2017-Apr-27 20:00N 54°30' E 011°37'3 5.6
2017-Apr-27 19:30N 54°28' E 011°41'4 5.8
2017-Apr-27 18:47N 54°27' E 011°48'3 9.4
2017-Apr-27 18:30N 54°27' E 011°52'611.8
2017-Apr-27 18:00N 54°27' E 012°02'510.4
2017-Apr-27 17:30N 54°29' E 012°10'612.0
2017-Apr-27 17:00N 54°35' E 012°14'611.3
2017-Apr-27 16:30N 54°39' E 012°20'611.2
2017-Apr-27 16:00N 54°42' E 012°28'45 9.3
2017-Apr-27 11:14N 54°53' E 013°43'0 0.9
2017-Apr-27 11:00N 54°53' E 013°42'3 1.2
2017-Apr-27 08:23N 54°56' E 013°46'1 2.9
2017-Apr-27 07:57N 54°56' E 013°48'1 2.9
2017-Apr-27 07:28N 54°56' E 013°50'1 2.3
2017-Apr-27 06:54N 54°56' E 013°53'1 2.2
2017-Apr-27 06:18N 54°56' E 013°55'1 2.7
2017-Apr-27 05:49N 54°56' E 013°57'1 2.7
2017-Apr-27 05:25N 54°56' E 013°59'2 2.4
2017-Apr-27 04:35N 54°58' E 014°02'1 3.0
2017-Apr-27 04:14N 54°59' E 014°03'1 3.3
2017-Apr-27 04:01N 54°59' E 014°04'1 2.7
2017-Apr-27 03:30N 54°59' E 014°06'2 4.5
2017-Apr-27 03:00N 54°59' E 014°10'2 4.5
2017-Apr-27 02:30N 54°59' E 014°14'2 4.3
2017-Apr-27 02:00N 54°58' E 014°18'2 3.4
2017-Apr-27 01:30N 54°58' E 014°20'2 3.5
2017-Apr-27 01:00N 54°58' E 014°23'2 3.4
2017-Apr-27 00:30N 54°58' E 014°26'2 3.4
2017-Apr-27 00:00N 54°58' E 014°29'2 3.3
2017-Apr-26 23:30N 54°58' E 014°32'2 3.3
2017-Apr-26 23:00N 54°57' E 014°35'2 4.4
2017-Apr-26 22:30N 54°57' E 014°39'2 4.5
2017-Apr-26 22:00N 54°57' E 014°43'2 4.4
2017-Apr-26 21:30N 54°56' E 014°46'2 3.9
2017-Apr-26 21:00N 54°56' E 014°50'2 4.0
2017-Apr-26 20:30N 54°55' E 014°53'2 4.0
2017-Apr-26 20:00N 54°55' E 014°56'2 4.0
2017-Apr-26 19:30N 54°55' E 014°60'2 4.0
2017-Apr-26 19:00N 54°55' E 015°03'2 4.0
2017-Apr-26 18:30N 54°55' E 015°07'2 4.0
2017-Apr-26 18:00N 54°56' E 015°10'2 3.9
2017-Apr-26 17:30N 54°56' E 015°13'2 3.8
2017-Apr-26 17:00N 54°56' E 015°17'2 2.9
2017-Apr-26 16:26N 54°57' E 015°20'2 3.9
2017-Apr-26 16:00N 54°57' E 015°22'2 3.8
2017-Apr-26 15:25N 54°57' E 015°26'22 2.4
2017-Apr-26 05:59N 55°18' E 015°43'0 0.4
2017-Apr-26 04:46N 55°18' E 015°42'1 0.1
2017-Apr-25 20:51N 55°18' E 015°43'0 0.7
2017-Apr-25 20:22N 55°18' E 015°43'2 0.1
2017-Apr-25 05:55N 55°17' E 015°46'80 5.8
2017-Apr-24 16:10N 55°04' E 018°04'1010.2
2017-Apr-24 15:10N 55°02' E 018°21'210.1
2017-Apr-24 15:00N 55°02' E 018°24'510.2
2017-Apr-24 14:30N 55°00' E 018°33'6 5.7
2017-Apr-24 13:30N 54°58' E 018°42'2 4.2
2017-Apr-24 13:00N 54°58' E 018°46'1 3.0
2017-Apr-24 12:30N 54°58' E 018°48'1 2.6
2017-Apr-24 12:00N 54°58' E 018°51'1 1.7
2017-Apr-24 11:30N 54°58' E 018°52'1 2.9
2017-Apr-24 11:00N 54°57' E 018°51'2 3.7
2017-Apr-24 10:30N 54°55' E 018°51'1 2.0
2017-Apr-24 10:00N 54°54' E 018°52'2 2.8
2017-Apr-24 09:28N 54°54' E 018°54'1 1.9
2017-Apr-24 08:58N 54°54' E 018°53'2 3.5
2017-Apr-24 08:30N 54°53' E 018°55'5 9.5
2017-Apr-24 07:59N 54°49' E 019°00'3 6.4
2017-Apr-24 07:30N 54°47' E 019°04'1 2.7
2017-Apr-24 07:00N 54°47' E 019°06'1 2.7
2017-Apr-24 06:30N 54°48' E 019°09'1 2.8
2017-Apr-24 06:00N 54°47' E 019°10'2 3.0
2017-Apr-24 05:30N 54°45' E 019°12'1 1.9
2017-Apr-24 05:00N 54°45' E 019°13'1 2.9
2017-Apr-24 04:30N 54°44' E 019°15'1 2.9
2017-Apr-24 04:00N 54°43' E 019°17'1 2.7
2017-Apr-24 03:30N 54°44' E 019°15'611.6
2017-Apr-24 03:00N 54°48' E 019°09'1 1.5
2017-Apr-24 02:31N 54°49' E 019°08'510.1
2017-Apr-24 02:00N 54°54' E 019°12'0 0.6
2017-Apr-24 01:30N 54°54' E 019°12'4 7.3
2017-Apr-24 01:00N 54°54' E 019°06'611.5
2017-Apr-24 00:30N 54°54' E 018°56'1 2.0
2017-Apr-24 00:01N 54°54' E 018°54'611.0
2017-Apr-23 23:30N 54°57' E 018°46'4 8.0
2017-Apr-23 23:00N 54°60' E 018°41'2 4.9
2017-Apr-23 22:30N 55°02' E 018°38'611.1
2017-Apr-23 22:00N 55°06' E 018°31'  
2017-Apr-19 20:45N 54°57' E 015°46'28 1.7
2017-Apr-19 03:49N 54°47' E 014°60'1 1.7
2017-Apr-19 03:30N 54°47' E 015°00'611.2
2017-Apr-19 03:00N 54°48' E 015°10'3 5.6
2017-Apr-19 02:29N 54°48' E 015°15'10 2.7
2017-Apr-18 22:53N 54°57' E 015°16'1 2.3
2017-Apr-18 22:31N 54°57' E 015°15'510.4
2017-Apr-18 22:00N 55°02' E 015°15'510.8
2017-Apr-18 21:30N 55°08' E 015°16'1 1.0
2017-Apr-18 21:01N 55°08' E 015°15'510.6
2017-Apr-18 20:30N 55°07' E 015°25'3 5.1
2017-Apr-18 19:59N 55°07' E 015°29'  
Track history (hours):
 
Tides and Currents Weather Stations Pressure Air Temp Water Temp Dewpoint Dewpoint Depression Visibility Wind Speed Wind Dir Waves Ship Positions

Oceanographic research ship Alkor (Germany)

Ship's website: http://www.briese.de/

Detailed information on ship capabilities available from University of Delaware's Ocean Information Center.

Last reported at 2017-Apr-28 03:59 UTC. Time now 2017-Apr-29 05:52 UTC.
Position N 54°33' E 010°29'.

Length 55 m; draft 4.2 m.

Type: Ship. MMSI: 211216512.

Date/timePositionNaut miles runAvg speedWind from/ knotsBaromVisibWave heightAir tempDewpointWater temp
2017-Apr-28 03:59N 54°33' E 010°29'510.5
2017-Apr-28 03:30N 54°35' E 010°37'510.4
2017-Apr-28 03:00N 54°36' E 010°45'3 6.7
2017-Apr-28 02:30N 54°37' E 010°51'1 2.6
2017-Apr-28 02:00N 54°37' E 010°53'1 2.4
2017-Apr-28 01:30N 54°37' E 010°55'1 2.6
2017-Apr-28 01:00N 54°36' E 010°57'1 3.0
2017-Apr-28 00:30N 54°36' E 010°60'1 2.7
2017-Apr-28 00:00N 54°36' E 011°02'3 5.6
2017-Apr-27 23:30N 54°37' E 011°07'2 4.3
2017-Apr-27 23:00N 54°37' E 011°11'2 4.8
2017-Apr-27 22:30N 54°36' E 011°15'3 6.2
2017-Apr-27 22:00N 54°35' E 011°19'3 5.5
2017-Apr-27 21:30N 54°33' E 011°24'3 5.1
2017-Apr-27 21:00N 54°32' E 011°28'3 5.7
2017-Apr-27 20:30N 54°31' E 011°32'3 5.7
2017-Apr-27 20:00N 54°30' E 011°37'3 5.6
2017-Apr-27 19:30N 54°28' E 011°41'4 5.8
2017-Apr-27 18:47N 54°27' E 011°48'3 9.4
2017-Apr-27 18:30N 54°27' E 011°52'611.8
2017-Apr-27 18:00N 54°27' E 012°02'510.4
2017-Apr-27 17:30N 54°29' E 012°10'612.0
2017-Apr-27 17:00N 54°35' E 012°14'611.3
2017-Apr-27 16:30N 54°39' E 012°20'611.2
2017-Apr-27 16:00N 54°42' E 012°28'45 9.3
2017-Apr-27 11:14N 54°53' E 013°43'0 0.9
2017-Apr-27 11:00N 54°53' E 013°42'3 1.2
2017-Apr-27 08:23N 54°56' E 013°46'1 2.9
2017-Apr-27 07:57N 54°56' E 013°48'1 2.9
2017-Apr-27 07:28N 54°56' E 013°50'1 2.3
2017-Apr-27 06:54N 54°56' E 013°53'1 2.2
2017-Apr-27 06:18N 54°56' E 013°55'1 2.7
2017-Apr-27 05:49N 54°56' E 013°57'1 2.7
2017-Apr-27 05:25N 54°56' E 013°59'2 2.4
2017-Apr-27 04:35N 54°58' E 014°02'1 3.0
2017-Apr-27 04:14N 54°59' E 014°03'1 3.3
2017-Apr-27 04:01N 54°59' E 014°04'1 2.7
2017-Apr-27 03:30N 54°59' E 014°06'2 4.5
2017-Apr-27 03:00N 54°59' E 014°10'2 4.5
2017-Apr-27 02:30N 54°59' E 014°14'2 4.3
2017-Apr-27 02:00N 54°58' E 014°18'2 3.4
2017-Apr-27 01:30N 54°58' E 014°20'2 3.5
2017-Apr-27 01:00N 54°58' E 014°23'2 3.4
2017-Apr-27 00:30N 54°58' E 014°26'2 3.4
2017-Apr-27 00:00N 54°58' E 014°29'2 3.3
2017-Apr-26 23:30N 54°58' E 014°32'2 3.3
2017-Apr-26 23:00N 54°57' E 014°35'2 4.4
2017-Apr-26 22:30N 54°57' E 014°39'2 4.5
2017-Apr-26 22:00N 54°57' E 014°43'2 4.4
2017-Apr-26 21:30N 54°56' E 014°46'2 3.9
2017-Apr-26 21:00N 54°56' E 014°50'2 4.0
2017-Apr-26 20:30N 54°55' E 014°53'2 4.0
2017-Apr-26 20:00N 54°55' E 014°56'2 4.0
2017-Apr-26 19:30N 54°55' E 014°60'2 4.0
2017-Apr-26 19:00N 54°55' E 015°03'2 4.0
2017-Apr-26 18:30N 54°55' E 015°07'2 4.0
2017-Apr-26 18:00N 54°56' E 015°10'2 3.9
2017-Apr-26 17:30N 54°56' E 015°13'2 3.8
2017-Apr-26 17:00N 54°56' E 015°17'2 2.9
2017-Apr-26 16:26N 54°57' E 015°20'2 3.9
2017-Apr-26 16:00N 54°57' E 015°22'2 3.8
2017-Apr-26 15:25N 54°57' E 015°26'22 2.4
2017-Apr-26 05:59N 55°18' E 015°43'0 0.4
2017-Apr-26 04:46N 55°18' E 015°42'1 0.1
2017-Apr-25 20:51N 55°18' E 015°43'0 0.7
2017-Apr-25 20:22N 55°18' E 015°43'2 0.1
2017-Apr-25 05:55N 55°17' E 015°46'80 5.8
2017-Apr-24 16:10N 55°04' E 018°04'1010.2
2017-Apr-24 15:10N 55°02' E 018°21'210.1
2017-Apr-24 15:00N 55°02' E 018°24'510.2
2017-Apr-24 14:30N 55°00' E 018°33'6 5.7
2017-Apr-24 13:30N 54°58' E 018°42'2 4.2
2017-Apr-24 13:00N 54°58' E 018°46'1 3.0
2017-Apr-24 12:30N 54°58' E 018°48'1 2.6
2017-Apr-24 12:00N 54°58' E 018°51'1 1.7
2017-Apr-24 11:30N 54°58' E 018°52'1 2.9
2017-Apr-24 11:00N 54°57' E 018°51'2 3.7
2017-Apr-24 10:30N 54°55' E 018°51'1 2.0
2017-Apr-24 10:00N 54°54' E 018°52'2 2.8
2017-Apr-24 09:28N 54°54' E 018°54'1 1.9
2017-Apr-24 08:58N 54°54' E 018°53'2 3.5
2017-Apr-24 08:30N 54°53' E 018°55'5 9.5
2017-Apr-24 07:59N 54°49' E 019°00'3 6.4
2017-Apr-24 07:30N 54°47' E 019°04'1 2.7
2017-Apr-24 07:00N 54°47' E 019°06'1 2.7
2017-Apr-24 06:30N 54°48' E 019°09'1 2.8
2017-Apr-24 06:00N 54°47' E 019°10'2 3.0
2017-Apr-24 05:30N 54°45' E 019°12'1 1.9
2017-Apr-24 05:00N 54°45' E 019°13'1 2.9
2017-Apr-24 04:30N 54°44' E 019°15'1 2.9
2017-Apr-24 04:00N 54°43' E 019°17'1 2.7
2017-Apr-24 03:30N 54°44' E 019°15'611.6
2017-Apr-24 03:00N 54°48' E 019°09'1 1.5
2017-Apr-24 02:31N 54°49' E 019°08'510.1
2017-Apr-24 02:00N 54°54' E 019°12'0 0.6
2017-Apr-24 01:30N 54°54' E 019°12'4 7.3
2017-Apr-24 01:00N 54°54' E 019°06'611.5
2017-Apr-24 00:30N 54°54' E 018°56'1 2.0
2017-Apr-24 00:01N 54°54' E 018°54'611.0
2017-Apr-23 23:30N 54°57' E 018°46'4 8.0
2017-Apr-23 23:00N 54°60' E 018°41'2 4.9
2017-Apr-23 22:30N 55°02' E 018°38'611.1
2017-Apr-23 22:00N 55°06' E 018°31'  
2017-Apr-19 20:45N 54°57' E 015°46'28 1.7
2017-Apr-19 03:49N 54°47' E 014°60'1 1.7
2017-Apr-19 03:30N 54°47' E 015°00'611.2
2017-Apr-19 03:00N 54°48' E 015°10'3 5.6
2017-Apr-19 02:29N 54°48' E 015°15'10 2.7
2017-Apr-18 22:53N 54°57' E 015°16'1 2.3
2017-Apr-18 22:31N 54°57' E 015°15'510.4
2017-Apr-18 22:00N 55°02' E 015°15'510.8
2017-Apr-18 21:30N 55°08' E 015°16'1 1.0
2017-Apr-18 21:01N 55°08' E 015°15'510.6
2017-Apr-18 20:30N 55°07' E 015°25'3 5.1
2017-Apr-18 19:59N 55°07' E 015°29'  

Dump ship's entire track history